Time,TemperatureF,DewpointF,PressureIn,WindDirection,WindDirectionDegrees,WindSpeedMPH,WindSpeedGustMPH,Humidity,HourlyPrecipIn,Conditions,Clouds,dailyrainin,SoftwareType,DateUTC
2017-10-19 00:02:00,53.8,44.6,30.17,SSW,202,2.3,2.3,71,0.00,CLR,,0.00,WeatherDisplay:10.37,2017-10-19 04:02:00,
2017-10-19 00:07:00,53.2,44.4,30.17,SSW,202,2.3,0.0,72,0.00,CLR,,0.00,WeatherDisplay:10.37,2017-10-19 04:07:00,
2017-10-19 00:12:00,52.7,43.9,30.17,South,180,2.3,0.0,72,0.00,CLR,,0.00,WeatherDisplay:10.37,2017-10-19 04:12:00,
2017-10-19 00:17:00,52.3,43.9,30.17,SSW,202,2.3,0.0,73,0.00,CLR,,0.00,WeatherDisplay:10.37,2017-10-19 04:17:00,
2017-10-19 00:22:00,52.2,44.2,30.17,SSW,202,2.3,0.0,74,0.00,CLR,,0.00,WeatherDisplay:10.37,2017-10-19 04:22:00,
2017-10-19 00:27:00,51.8,44.1,30.17,SSE,158,2.3,0.0,75,0.00,CLR,,0.00,WeatherDisplay:10.37,2017-10-19 04:27:00,
2017-10-19 00:32:00,51.4,44.1,30.17,South,180,2.3,0.0,76,0.00,CLR,,0.00,WeatherDisplay:10.37,2017-10-19 04:32:00,
2017-10-19 00:37:00,51.3,44.0,30.17,SSW,202,2.3,2.3,76,0.00,CLR,,0.00,WeatherDisplay:10.37,2017-10-19 04:37:00,
2017-10-19 11:18:00,70.2,69.3,30.04,North,0,2.3,2.3,97,0.00,CLR,,0.00,WeatherDisplay:10.37,2017-10-19 15:18:00,
2017-10-19 11:23:00,65.1,49.5,30.20,West,270,5.8,5.8,57,0.00,CLR,,0.00,WeatherDisplay:10.37,2017-10-19 15:23:00,
2017-10-19 11:28:00,65.5,49.9,30.20,SSW,202,7.8,7.8,57,0.00,CLR,,0.00,WeatherDisplay:10.37,2017-10-19 15:28:00,
2017-10-19 11:33:00,65.1,49.5,30.20,SSW,202,9.4,10.4,57,0.00,CLR,,0.00,WeatherDisplay:10.37,2017-10-19 15:33:00,
2017-10-19 11:38:00,65.3,49.7,30.20,South,180,8.9,8.9,57,0.00,CLR,,0.00,WeatherDisplay:10.37,2017-10-19 15:38:00,
2017-10-19 11:43:00,65.8,50.1,30.20,West,270,6.3,6.3,57,0.00,CLR,,0.00,WeatherDisplay:10.37,2017-10-19 15:43:00,
2017-10-19 11:48:00,66.7,50.5,30.20,SW,225,10.9,10.9,56,0.00,CLR,,0.00,WeatherDisplay:10.37,2017-10-19 15:48:00,
2017-10-19 11:53:00,66.9,50.7,30.20,SW,225,5.3,7.1,56,0.00,CLR,,0.00,WeatherDisplay:10.37,2017-10-19 15:53:00,
2017-10-19 11:58:00,66.9,50.7,30.20,SW,225,8.3,8.3,56,0.00,CLR,,0.00,WeatherDisplay:10.37,2017-10-19 15:58:00,
2017-10-19 12:03:00,66.9,50.7,30.20,SW,225,9.9,9.9,56,0.00,CLR,,0.00,WeatherDisplay:10.37,2017-10-19 16:03:00,
2017-10-19 12:08:00,67.3,50.6,30.20,SSW,202,14.0,14.0,55,0.00,CLR,,0.00,WeatherDisplay:10.37,2017-10-19 16:08:00,
2017-10-19 12:13:00,67.6,50.9,30.20,South,180,5.3,6.0,55,0.00,CLR,,0.00,WeatherDisplay:10.37,2017-10-19 16:13:00,
2017-10-19 12:18:00,68.0,50.7,30.20,South,180,6.8,7.1,54,0.00,CLR,,0.00,WeatherDisplay:10.37,2017-10-19 16:18:00,
2017-10-19 12:23:00,68.4,51.1,30.20,SSW,202,7.3,7.3,54,0.00,CLR,,0.00,WeatherDisplay:10.37,2017-10-19 16:23:00,
2017-10-19 12:28:00,68.5,51.7,30.20,SW,225,7.3,7.3,55,0.00,CLR,,0.00,WeatherDisplay:10.37,2017-10-19 16:28:00,
2017-10-19 12:33:00,68.4,51.1,30.20,West,270,4.2,5.4,54,0.00,CLR,,0.00,WeatherDisplay:10.37,2017-10-19 16:33:00,
2017-10-19 12:38:00,69.1,51.8,30.20,WSW,248,3.7,4.4,54,0.00,CLR,,0.00,WeatherDisplay:10.37,2017-10-19 16:38:00,
2017-10-19 12:43:00,68.7,51.4,30.20,SSW,202,5.3,7.4,54,0.00,CLR,,0.00,WeatherDisplay:10.37,2017-10-19 16:43:00,
2017-10-19 12:48:00,70.3,51.8,30.19,SSW,202,5.3,5.3,52,0.00,CLR,,0.00,WeatherDisplay:10.37,2017-10-19 16:48:00,
2017-10-19 12:49:00,70.5,52.0,30.19,West,270,7.3,7.3,52,0.00,CLR,,0.00,WeatherDisplay:10.37,2017-10-19 16:49:00,
2017-10-19 12:54:00,69.8,51.9,30.19,NNW,338,6.8,7.3,53,0.00,CLR,,0.00,WeatherDisplay:10.37,2017-10-19 16:54:00,
2017-10-19 12:59:00,69.8,51.9,30.19,West,270,8.9,8.9,53,0.00,CLR,,0.00,WeatherDisplay:10.37,2017-10-19 16:59:00,
2017-10-19 13:04:00,70.2,52.3,30.19,SW,225,5.3,5.3,53,0.00,CLR,,0.00,WeatherDisplay:10.37,2017-10-19 17:04:00,
2017-10-19 13:09:00,70.3,52.4,30.19,South,180,4.7,5.3,53,0.00,CLR,,0.00,WeatherDisplay:10.37,2017-10-19 17:09:00,
2017-10-19 13:14:00,70.2,51.7,30.19,SW,225,3.2,5.3,52,0.00,CLR,,0.00,WeatherDisplay:10.37,2017-10-19 17:14:00,
2017-10-19 13:19:00,70.5,52.5,30.19,SSW,202,4.2,6.8,53,0.00,CLR,,0.00,WeatherDisplay:10.37,2017-10-19 17:19:00,
2017-10-19 13:24:00,70.2,52.3,30.19,West,270,6.3,6.7,53,0.00,CLR,,0.00,WeatherDisplay:10.37,2017-10-19 17:24:00,
2017-10-19 13:29:00,70.2,51.7,30.19,SSW,202,6.8,8.2,52,0.00,CLR,,0.00,WeatherDisplay:10.37,2017-10-19 17:29:00,
2017-10-19 13:34:00,71.2,52.1,30.19,SW,225,3.2,4.7,51,0.00,CLR,,0.00,WeatherDisplay:10.37,2017-10-19 17:34:00,
2017-10-19 13:39:00,72.0,52.9,30.18,West,270,4.2,4.2,51,0.00,CLR,,0.00,WeatherDisplay:10.37,2017-10-19 17:39:00,
2017-10-19 13:44:00,72.5,52.8,30.18,West,270,3.2,4.5,50,0.00,CLR,,0.00,WeatherDisplay:10.37,2017-10-19 17:44:00,
2017-10-19 13:49:00,73.0,52.7,30.18,SW,225,2.7,4.4,49,0.00,CLR,,0.00,WeatherDisplay:10.37,2017-10-19 17:49:00,
2017-10-19 13:54:00,73.2,52.9,30.18,SSW,202,8.9,8.9,49,0.00,CLR,,0.00,WeatherDisplay:10.37,2017-10-19 17:54:00,
2017-10-19 13:59:00,72.7,53.0,30.18,West,270,3.7,5.0,50,0.00,CLR,,0.00,WeatherDisplay:10.37,2017-10-19 17:59:00,
2017-10-19 14:01:00,73.0,52.7,30.18,SSW,202,8.3,8.3,49,0.00,CLR,,0.00,WeatherDisplay:10.37,2017-10-19 18:01:00,
2017-10-19 14:06:00,72.7,52.4,30.18,SSW,202,6.3,6.3,49,0.00,CLR,,0.00,WeatherDisplay:10.37,2017-10-19 18:06:00,
2017-10-19 14:11:00,72.7,52.4,30.18,SSW,202,6.3,6.3,49,0.00,CLR,,0.00,WeatherDisplay:10.37,2017-10-19 18:11:00,
2017-10-19 14:16:00,72.9,52.6,30.18,West,270,5.3,6.3,49,0.00,CLR,,0.00,WeatherDisplay:10.37,2017-10-19 18:16:00,
2017-10-19 14:21:00,74.1,53.2,30.18,SSW,202,4.2,4.6,48,0.00,CLR,,0.00,WeatherDisplay:10.37,2017-10-19 18:21:00,
2017-10-19 14:26:00,73.0,52.7,30.17,SSW,202,6.8,8.5,49,0.00,CLR,,0.00,WeatherDisplay:10.37,2017-10-19 18:26:00,
2017-10-19 14:31:00,73.8,53.4,30.17,SW,225,6.3,6.3,49,0.00,CLR,,0.00,WeatherDisplay:10.37,2017-10-19 18:31:00,
2017-10-19 14:36:00,73.8,53.4,30.17,SW,225,7.3,7.3,49,0.00,CLR,,0.00,WeatherDisplay:10.37,2017-10-19 18:36:00,
2017-10-19 14:41:00,74.8,53.2,30.17,SW,225,5.8,5.8,47,0.00,CLR,,0.00,WeatherDisplay:10.37,2017-10-19 18:41:00,
2017-10-19 14:46:00,75.7,54.0,30.17,WSW,248,3.2,3.2,47,0.00,CLR,,0.00,WeatherDisplay:10.37,2017-10-19 18:46:00,
2017-10-19 14:51:00,74.5,53.5,30.17,SSW,202,10.9,10.9,48,0.00,CLR,,0.00,WeatherDisplay:10.37,2017-10-19 18:51:00,
2017-10-19 14:56:00,74.1,53.2,30.17,SSE,158,7.8,7.8,48,0.00,CLR,,0.00,WeatherDisplay:10.37,2017-10-19 18:56:00,
2017-10-19 15:01:00,75.2,53.6,30.17,SW,225,6.3,6.3,47,0.00,CLR,,0.00,WeatherDisplay:10.37,2017-10-19 19:01:00,
2017-10-19 15:06:00,74.8,53.8,30.16,SSW,202,7.8,7.8,48,0.00,CLR,,0.00,WeatherDisplay:10.37,2017-10-19 19:06:00,
2017-10-19 15:11:00,75.9,54.2,30.16,SSW,202,2.7,4.0,47,0.00,CLR,,0.00,WeatherDisplay:10.37,2017-10-19 19:11:00,
2017-10-19 15:16:00,74.1,53.2,30.16,WSW,248,6.8,7.9,48,0.00,CLR,,0.00,WeatherDisplay:10.37,2017-10-19 19:16:00,
2017-10-19 15:21:00,74.5,54.1,30.16,SSW,202,8.9,8.9,49,0.00,CLR,,0.00,WeatherDisplay:10.37,2017-10-19 19:21:00,
2017-10-19 15:26:00,74.7,53.7,30.16,SSW,202,7.8,7.8,48,0.00,CLR,,0.00,WeatherDisplay:10.37,2017-10-19 19:26:00,
2017-10-19 15:31:00,75.6,53.9,30.16,SE,135,4.7,6.8,47,0.00,CLR,,0.00,WeatherDisplay:10.37,2017-10-19 19:31:00,
2017-10-19 15:36:00,75.2,53.6,30.16,SSW,202,6.3,6.4,47,0.00,CLR,,0.00,WeatherDisplay:10.37,2017-10-19 19:36:00,
2017-10-19 15:41:00,76.3,54.0,30.16,SSW,202,4.7,4.7,46,0.00,CLR,,0.00,WeatherDisplay:10.37,2017-10-19 19:41:00,
2017-10-19 15:46:00,76.8,53.8,30.16,SSE,158,4.7,4.7,45,0.00,CLR,,0.00,WeatherDisplay:10.37,2017-10-19 19:46:00,
2017-10-19 15:51:00,77.4,53.8,30.16,SSW,202,5.3,5.3,44,0.00,CLR,,0.00,WeatherDisplay:10.37,2017-10-19 19:51:00,
2017-10-19 15:56:00,76.5,53.6,30.16,SW,225,7.3,7.3,45,0.00,CLR,,0.00,WeatherDisplay:10.37,2017-10-19 19:56:00,
2017-10-19 16:01:00,76.1,53.2,30.16,SSW,202,6.3,7.0,45,0.00,CLR,,0.00,WeatherDisplay:10.37,2017-10-19 20:01:00,
2017-10-19 16:06:00,76.8,53.2,30.16,WSW,248,2.7,5.3,44,0.00,CLR,,0.00,WeatherDisplay:10.37,2017-10-19 20:06:00,
2017-10-19 16:11:00,77.0,53.4,30.16,West,270,6.3,6.3,44,0.00,CLR,,0.00,WeatherDisplay:10.37,2017-10-19 20:11:00,
2017-10-19 16:16:00,77.0,53.4,30.16,SSW,202,6.8,6.8,44,0.00,CLR,,0.00,WeatherDisplay:10.37,2017-10-19 20:16:00,
2017-10-19 16:21:00,76.3,54.0,30.16,SSW,202,5.3,5.3,46,0.00,CLR,,0.00,WeatherDisplay:10.37,2017-10-19 20:21:00,
2017-10-19 16:26:00,77.5,53.9,30.16,SW,225,4.2,5.3,44,0.00,CLR,,0.00,WeatherDisplay:10.37,2017-10-19 20:26:00,
2017-10-19 16:31:00,77.5,53.2,30.16,SSW,202,7.3,7.4,43,0.00,CLR,,0.00,WeatherDisplay:10.37,2017-10-19 20:31:00,
2017-10-19 16:36:00,76.6,53.1,30.16,SSW,202,5.8,5.9,44,0.00,CLR,,0.00,WeatherDisplay:10.37,2017-10-19 20:36:00,
2017-10-19 16:41:00,77.2,53.6,30.16,WSW,248,4.7,4.7,44,0.00,CLR,,0.00,WeatherDisplay:10.37,2017-10-19 20:41:00,
2017-10-19 16:46:00,76.6,53.7,30.16,SSW,202,6.3,6.3,45,0.00,CLR,,0.00,WeatherDisplay:10.37,2017-10-19 20:46:00,
2017-10-19 16:51:00,76.1,53.2,30.16,SSE,158,10.9,10.9,45,0.00,CLR,,0.00,WeatherDisplay:10.37,2017-10-19 20:51:00,
2017-10-19 16:56:00,75.9,53.0,30.16,SW,225,6.3,6.8,45,0.00,CLR,,0.00,WeatherDisplay:10.37,2017-10-19 20:56:00,
2017-10-19 17:01:00,75.2,53.0,30.15,SSW,202,7.8,7.8,46,0.00,CLR,,0.00,WeatherDisplay:10.37,2017-10-19 21:01:00,
2017-10-19 17:06:00,75.6,53.4,30.15,South,180,4.2,4.7,46,0.00,CLR,,0.00,WeatherDisplay:10.37,2017-10-19 21:06:00,
2017-10-19 17:11:00,75.9,53.6,30.15,SSW,202,3.7,3.7,46,0.00,CLR,,0.00,WeatherDisplay:10.37,2017-10-19 21:11:00,
2017-10-19 17:16:00,75.2,53.6,30.15,SSW,202,6.3,6.3,47,0.00,CLR,,0.00,WeatherDisplay:10.37,2017-10-19 21:16:00,
2017-10-19 17:21:00,75.6,53.4,30.15,SSW,202,6.8,6.8,46,0.00,CLR,,0.00,WeatherDisplay:10.37,2017-10-19 21:21:00,
2017-10-19 17:26:00,74.8,53.2,30.16,SW,225,4.7,4.7,47,0.00,CLR,,0.00,WeatherDisplay:10.37,2017-10-19 21:26:00,
2017-10-19 17:31:00,73.9,53.0,30.16,West,270,6.3,6.3,48,0.00,CLR,,0.00,WeatherDisplay:10.37,2017-10-19 21:31:00,
2017-10-19 17:36:00,73.4,52.5,30.16,WSW,248,7.3,7.3,48,0.00,CLR,,0.00,WeatherDisplay:10.37,2017-10-19 21:36:00,
2017-10-19 17:41:00,72.7,52.4,30.15,SW,225,9.4,9.4,49,0.00,CLR,,0.00,WeatherDisplay:10.37,2017-10-19 21:41:00,
2017-10-19 17:46:00,72.5,52.2,30.15,SSW,202,4.7,6.4,49,0.00,CLR,,0.00,WeatherDisplay:10.37,2017-10-19 21:46:00,
2017-10-19 17:51:00,72.3,52.6,30.15,West,270,8.3,8.3,50,0.00,CLR,,0.00,WeatherDisplay:10.37,2017-10-19 21:51:00,
2017-10-19 17:56:00,72.0,52.3,30.15,SSW,202,6.8,6.8,50,0.00,CLR,,0.00,WeatherDisplay:10.37,2017-10-19 21:56:00,
2017-10-19 18:01:00,71.8,52.7,30.16,WSW,248,4.2,5.2,51,0.00,CLR,,0.00,WeatherDisplay:10.37,2017-10-19 22:01:00,
2017-10-19 18:06:00,71.8,52.7,30.16,SW,225,4.7,4.7,51,0.00,CLR,,0.00,WeatherDisplay:10.37,2017-10-19 22:06:00,
2017-10-19 18:11:00,71.4,52.3,30.16,West,270,5.8,5.9,51,0.00,CLR,,0.00,WeatherDisplay:10.37,2017-10-19 22:11:00,
2017-10-19 18:16:00,71.2,52.1,30.16,SSW,202,5.3,5.3,51,0.00,CLR,,0.00,WeatherDisplay:10.37,2017-10-19 22:16:00,
2017-10-19 18:21:00,71.1,52.0,30.16,WSW,248,6.8,6.8,51,0.00,CLR,,0.00,WeatherDisplay:10.37,2017-10-19 22:21:00,
2017-10-19 18:26:00,70.9,52.4,30.16,SW,225,4.7,5.1,52,0.00,CLR,,0.00,WeatherDisplay:10.37,2017-10-19 22:26:00,
2017-10-19 18:31:00,70.7,52.2,30.16,SSW,202,5.8,5.8,52,0.00,CLR,,0.00,WeatherDisplay:10.37,2017-10-19 22:31:00,
2017-10-19 18:36:00,70.5,52.0,30.16,SSW,202,5.3,5.3,52,0.00,CLR,,0.00,WeatherDisplay:10.37,2017-10-19 22:36:00,
2017-10-19 18:41:00,70.3,52.4,30.17,WSW,248,2.3,3.4,53,0.00,CLR,,0.00,WeatherDisplay:10.37,2017-10-19 22:41:00,
2017-10-19 18:46:00,70.0,52.1,30.17,SW,225,2.3,2.3,53,0.00,CLR,,0.00,WeatherDisplay:10.37,2017-10-19 22:46:00,
2017-10-19 18:51:00,69.4,52.0,30.17,SW,225,3.2,3.2,54,0.00,CLR,,0.00,WeatherDisplay:10.37,2017-10-19 22:51:00,
2017-10-19 18:56:00,69.1,52.2,30.17,SW,225,4.2,4.2,55,0.00,CLR,,0.00,WeatherDisplay:10.37,2017-10-19 22:56:00,
2017-10-19 19:01:00,68.5,51.7,30.17,SW,225,3.7,3.7,55,0.00,CLR,,0.00,WeatherDisplay:10.37,2017-10-19 23:01:00,
2017-10-19 19:06:00,68.2,51.9,30.17,SSW,202,2.3,2.7,56,0.00,CLR,,0.00,WeatherDisplay:10.37,2017-10-19 23:06:00,
2017-10-19 19:11:00,67.8,51.5,30.17,SW,225,3.7,3.7,56,0.00,CLR,,0.00,WeatherDisplay:10.37,2017-10-19 23:11:00,
2017-10-19 19:16:00,67.5,51.7,30.16,SSW,202,2.3,2.3,57,0.00,CLR,,0.00,WeatherDisplay:10.37,2017-10-19 23:16:00,
2017-10-19 19:21:00,67.1,51.8,30.16,SSW,202,2.3,2.3,58,0.00,CLR,,0.00,WeatherDisplay:10.37,2017-10-19 23:21:00,
2017-10-19 19:26:00,66.6,51.8,30.17,SSW,202,2.3,0.0,59,0.00,CLR,,0.00,WeatherDisplay:10.37,2017-10-19 23:26:00,
2017-10-19 19:31:00,66.0,51.3,30.17,SSW,202,2.3,0.0,59,0.00,CLR,,0.00,WeatherDisplay:10.37,2017-10-19 23:31:00,
2017-10-19 19:36:00,65.1,51.3,30.17,South,180,2.3,0.0,61,0.00,CLR,,0.00,WeatherDisplay:10.37,2017-10-19 23:36:00,
2017-10-19 19:41:00,64.6,51.3,30.17,South,180,2.3,0.0,62,0.00,CLR,,0.00,WeatherDisplay:10.37,2017-10-19 23:41:00,
2017-10-19 19:46:00,64.2,51.3,30.17,SW,225,2.3,0.0,63,0.00,CLR,,0.00,WeatherDisplay:10.37,2017-10-19 23:46:00,
2017-10-19 19:51:00,63.5,51.1,30.18,SSW,202,2.3,0.0,64,0.00,CLR,,0.00,WeatherDisplay:10.37,2017-10-19 23:51:00,
2017-10-19 19:56:00,62.8,51.3,30.18,South,180,2.3,0.0,66,0.00,CLR,,0.00,WeatherDisplay:10.37,2017-10-19 23:56:00,
2017-10-19 19:57:00,62.8,51.3,30.18,SSW,202,2.3,0.0,66,0.00,CLR,,0.00,WeatherDisplay:10.37,2017-10-19 23:57:00,
2017-10-19 20:02:00,62.4,50.9,30.18,SSW,202,2.3,0.0,66,0.00,CLR,,0.00,WeatherDisplay:10.37,2017-10-20 00:02:00,
2017-10-19 20:07:00,62.1,51.0,30.18,SSW,202,2.3,0.0,67,0.00,CLR,,0.00,WeatherDisplay:10.37,2017-10-20 00:07:00,
2017-10-19 20:12:00,61.7,51.0,30.18,South,180,2.3,0.0,68,0.00,CLR,,0.00,WeatherDisplay:10.37,2017-10-20 00:12:00,
2017-10-19 20:17:00,61.3,51.0,30.18,South,180,2.3,0.0,69,0.00,CLR,,0.00,WeatherDisplay:10.37,2017-10-20 00:17:00,
2017-10-19 20:22:00,61.0,51.1,30.18,South,180,2.3,0.0,70,0.00,CLR,,0.00,WeatherDisplay:10.37,2017-10-20 00:22:00,
2017-10-19 20:27:00,60.8,51.3,30.18,South,180,2.3,2.3,71,0.00,CLR,,0.00,WeatherDisplay:10.37,2017-10-20 00:27:00,
2017-10-19 20:32:00,60.4,51.0,30.18,South,180,2.3,2.3,71,0.00,CLR,,0.00,WeatherDisplay:10.37,2017-10-20 00:32:00,
2017-10-19 20:37:00,60.3,50.9,30.18,SSW,202,2.3,2.3,71,0.00,CLR,,0.00,WeatherDisplay:10.37,2017-10-20 00:37:00,
2017-10-19 20:47:00,60.1,51.0,30.18,SSW,202,2.3,2.3,72,0.00,CLR,,0.00,WeatherDisplay:10.37,2017-10-20 00:47:00,
2017-10-19 20:52:00,60.1,51.0,30.19,SSW,202,2.3,2.3,72,0.00,CLR,,0.00,WeatherDisplay:10.37,2017-10-20 00:52:00,
2017-10-19 20:57:00,60.1,51.0,30.19,SSW,202,2.3,2.3,72,0.00,CLR,,0.00,WeatherDisplay:10.37,2017-10-20 00:57:00,
2017-10-19 21:02:00,60.1,51.0,30.19,WSW,248,2.7,2.7,72,0.00,CLR,,0.00,WeatherDisplay:10.37,2017-10-20 01:02:00,
2017-10-19 21:07:00,60.3,50.9,30.19,South,180,2.3,2.3,71,0.00,CLR,,0.00,WeatherDisplay:10.37,2017-10-20 01:07:00,
2017-10-19 21:12:00,60.1,50.7,30.19,SSW,202,2.3,2.3,71,0.00,CLR,,0.00,WeatherDisplay:10.37,2017-10-20 01:12:00,
2017-10-19 21:17:00,60.1,50.7,30.19,South,180,2.3,2.3,71,0.00,CLR,,0.00,WeatherDisplay:10.37,2017-10-20 01:17:00,
2017-10-19 21:22:00,60.3,50.9,30.19,South,180,2.3,2.5,71,0.00,CLR,,0.00,WeatherDisplay:10.37,2017-10-20 01:22:00,
2017-10-19 21:27:00,60.3,50.9,30.18,SSW,202,3.2,3.2,71,0.00,CLR,,0.00,WeatherDisplay:10.37,2017-10-20 01:27:00,
2017-10-19 21:32:00,60.4,51.0,30.18,SSW,202,2.7,2.8,71,0.00,CLR,,0.00,WeatherDisplay:10.37,2017-10-20 01:32:00,
2017-10-19 21:37:00,60.4,51.0,30.19,SSW,202,2.7,2.8,71,0.00,CLR,,0.00,WeatherDisplay:10.37,2017-10-20 01:37:00,
2017-10-19 21:42:00,60.4,50.6,30.19,SSW,202,2.3,2.3,70,0.00,CLR,,0.00,WeatherDisplay:10.37,2017-10-20 01:42:00,
2017-10-19 21:47:00,60.4,50.6,30.19,SSW,202,2.7,2.7,70,0.00,CLR,,0.00,WeatherDisplay:10.37,2017-10-20 01:47:00,
2017-10-19 21:52:00,60.8,50.6,30.19,SSW,202,3.7,3.7,69,0.00,CLR,,0.00,WeatherDisplay:10.37,2017-10-20 01:52:00,
2017-10-19 21:57:00,61.0,50.8,30.19,SSW,202,2.3,2.5,69,0.00,CLR,,0.00,WeatherDisplay:10.37,2017-10-20 01:57:00,
2017-10-19 22:02:00,61.2,50.9,30.19,SW,225,3.2,3.2,69,0.00,CLR,,0.00,WeatherDisplay:10.37,2017-10-20 02:02:00,
2017-10-19 22:07:00,61.0,50.8,30.19,SSW,202,2.3,2.3,69,0.00,CLR,,0.00,WeatherDisplay:10.37,2017-10-20 02:07:00,
2017-10-19 22:12:00,60.6,50.4,30.19,South,180,2.7,2.7,69,0.00,CLR,,0.00,WeatherDisplay:10.37,2017-10-20 02:12:00,
2017-10-19 22:17:00,60.4,50.2,30.19,South,180,3.2,3.2,69,0.00,CLR,,0.00,WeatherDisplay:10.37,2017-10-20 02:17:00,
2017-10-19 22:22:00,60.4,50.2,30.19,SSW,202,2.7,2.7,69,0.00,CLR,,0.00,WeatherDisplay:10.37,2017-10-20 02:22:00,
2017-10-19 22:27:00,60.4,50.2,30.19,SSW,202,3.7,3.7,69,0.00,CLR,,0.00,WeatherDisplay:10.37,2017-10-20 02:27:00,
2017-10-19 22:32:00,60.6,50.4,30.19,SSW,202,2.7,2.9,69,0.00,CLR,,0.00,WeatherDisplay:10.37,2017-10-20 02:32:00,
2017-10-19 22:37:00,60.6,50.4,30.19,SW,225,2.3,3.1,69,0.00,CLR,,0.00,WeatherDisplay:10.37,2017-10-20 02:37:00,
2017-10-19 22:42:00,60.4,50.2,30.19,South,180,2.7,2.7,69,0.00,CLR,,0.00,WeatherDisplay:10.37,2017-10-20 02:42:00,
2017-10-19 22:47:00,60.3,50.1,30.19,SSW,202,2.3,2.3,69,0.00,CLR,,0.00,WeatherDisplay:10.37,2017-10-20 02:47:00,
2017-10-19 22:52:00,60.1,50.3,30.19,WSW,248,2.7,2.7,70,0.00,CLR,,0.00,WeatherDisplay:10.37,2017-10-20 02:52:00,
2017-10-19 22:57:00,60.3,50.5,30.19,SSW,202,2.3,2.3,70,0.00,CLR,,0.00,WeatherDisplay:10.37,2017-10-20 02:57:00,
2017-10-19 23:02:00,59.9,50.1,30.19,SE,135,2.3,2.3,70,0.00,CLR,,0.00,WeatherDisplay:10.37,2017-10-20 03:02:00,
2017-10-19 23:07:00,59.5,50.1,30.19,SW,225,2.3,2.3,71,0.00,CLR,,0.00,WeatherDisplay:10.37,2017-10-20 03:07:00,
2017-10-19 23:13:00,59.5,50.1,30.19,WSW,248,3.2,3.2,71,0.00,CLR,,0.00,WeatherDisplay:10.37,2017-10-20 03:13:00,
2017-10-19 23:18:00,60.1,50.7,30.19,SSW,202,2.3,2.3,71,0.00,CLR,,0.00,WeatherDisplay:10.37,2017-10-20 03:18:00,